Weir, Texas
Current Conditions -  °F | °C
As of 10:49 AM on Thursday 23 Oct 2014 (Local Time) from KGTU Reporting Station
Scattered Clouds Scattered Clouds  
Wind Chill: 72°   Ceiling: Unl
Heat Index: 72°   Visibility: 10mi
Dew Point: 61°   Wind: 0mph
Humidity: 69%   Direction: NA
Pressure: 30.16"   Gusts: NA
Location:  30.67°N, 97.58°W
Report Text: KGTU 231549Z 00000KT 10SM SCT110 22/16 A3016
Loading
Personal Weather Stations






























Interactive Weather Map
Tropical Storm Tracking
New forecast layout! Learn more

10-Day Weather Forecast

Advertisements
Track Severe Weather on mobile